createdAt,value
2023-01-29T00:01:26.091Z,-3.79
2023-01-29T00:03:54.844Z,-3.23
2023-01-29T00:06:23.546Z,-3.32
2023-01-29T00:08:51.208Z,-3.56
2023-01-29T00:11:20.280Z,-3.57
2023-01-29T00:13:47.875Z,-3.55
2023-01-29T00:16:15.364Z,-3.62
2023-01-29T00:18:43.273Z,-3.82
2023-01-29T00:21:12.765Z,-3.85
2023-01-29T00:23:40.354Z,-3.80
2023-01-29T00:26:08.383Z,-3.72
2023-01-29T00:28:36.597Z,-3.22
2023-01-29T00:31:08.483Z,-2.87
2023-01-29T00:33:36.193Z,-3.19
2023-01-29T00:36:05.271Z,-2.89
2023-01-29T00:38:35.332Z,-2.90
2023-01-29T00:41:24.533Z,-3.14
2023-01-29T00:44:09.380Z,-3.23
2023-01-29T00:46:36.901Z,-3.17
2023-01-29T00:49:05.073Z,-3.40
2023-01-29T00:51:32.545Z,-3.34
2023-01-29T00:54:02.567Z,-3.30
2023-01-29T00:56:30.922Z,-3.20
2023-01-29T00:58:58.373Z,-2.97
2023-01-29T01:01:39.902Z,-2.49
2023-01-29T01:04:07.552Z,-2.63
2023-01-29T01:06:35.153Z,-2.29
2023-01-29T01:09:21.586Z,-2.22
2023-01-29T01:11:49.044Z,-2.36
2023-01-29T01:14:16.499Z,-2.35
2023-01-29T01:16:44.233Z,-1.98
2023-01-29T01:19:11.714Z,-1.94
2023-01-29T01:21:39.272Z,-2.45
2023-01-29T01:24:08.337Z,-2.35
2023-01-29T01:26:35.941Z,-1.90
2023-01-29T01:29:03.379Z,-2.20
2023-01-29T01:31:32.091Z,-1.95
2023-01-29T01:33:59.774Z,-2.32
2023-01-29T01:36:27.235Z,-2.07
2023-01-29T01:38:54.922Z,-2.01
2023-01-29T01:41:24.124Z,-1.81
2023-01-29T01:43:53.611Z,-1.72
2023-01-29T01:46:21.363Z,-1.76
2023-01-29T01:48:52.507Z,-2.04
2023-01-29T01:51:20.738Z,-1.92
2023-01-29T01:53:52.540Z,-1.79
2023-01-29T01:56:24.588Z,-1.89
2023-01-29T01:58:54.865Z,-1.84
2023-01-29T02:01:27.576Z,-1.90
2023-01-29T02:04:15.218Z,-1.84
2023-01-29T02:07:00.469Z,-1.56
2023-01-29T02:09:33.333Z,-1.57
2023-01-29T02:12:02.658Z,-1.80
2023-01-29T02:14:30.612Z,-1.59
2023-01-29T02:16:58.094Z,-1.34
2023-01-29T02:19:37.793Z,-1.43
2023-01-29T02:22:13.657Z,-1.25
2023-01-29T02:25:00.378Z,-1.48
2023-01-29T02:27:35.412Z,-1.25
2023-01-29T02:30:08.679Z,-1.16
2023-01-29T02:32:41.461Z,-1.12
2023-01-29T02:35:27.044Z,-0.67
2023-01-29T02:38:00.343Z,-0.80
2023-01-29T02:40:31.558Z,-0.97
2023-01-29T02:43:07.943Z,-1.40
2023-01-29T02:45:44.180Z,0.30
2023-01-29T02:48:16.523Z,0.16
2023-01-29T02:50:47.546Z,0.29
2023-01-29T02:53:17.249Z,-0.82
2023-01-29T02:55:48.123Z,-1.31
2023-01-29T02:58:19.199Z,-0.88
2023-01-29T03:00:49.278Z,-0.21
2023-01-29T03:03:19.104Z,-0.35
2023-01-29T03:05:53.380Z,-0.58
2023-01-29T03:08:25.516Z,-0.22
2023-01-29T03:10:55.588Z,-0.46
2023-01-29T03:13:30.307Z,-0.88
2023-01-29T03:16:02.977Z,-0.86
2023-01-29T03:18:33.473Z,-0.48
2023-01-29T03:21:24.570Z,-0.18
2023-01-29T03:24:10.182Z,0.77
2023-01-29T03:26:55.117Z,0.97
2023-01-29T03:29:40.507Z,1.11
2023-01-29T03:32:09.416Z,0.63
2023-01-29T03:34:43.503Z,1.24
2023-01-29T03:37:16.044Z,0.84
2023-01-29T03:39:43.525Z,1.10
2023-01-29T03:42:16.116Z,0.41
2023-01-29T03:44:51.406Z,-0.12
2023-01-29T03:47:22.763Z,-0.51
2023-01-29T03:49:57.670Z,-0.74
2023-01-29T03:52:28.550Z,-0.45
2023-01-29T03:55:00.802Z,0.37
2023-01-29T03:57:32.877Z,0.64
2023-01-29T04:00:05.355Z,0.58
2023-01-29T04:02:40.103Z,0.42
2023-01-29T04:05:12.802Z,0.68
2023-01-29T04:07:41.701Z,0.82
2023-01-29T04:10:11.617Z,0.72
2023-01-29T04:12:42.398Z,0.25
2023-01-29T04:15:15.323Z,0.45
2023-01-29T04:17:45.747Z,0.74
2023-01-29T04:20:14.083Z,0.60
2023-01-29T04:22:46.327Z,0.11
2023-01-29T04:25:17.013Z,0.51
2023-01-29T04:27:50.068Z,0.80
2023-01-29T04:30:21.062Z,0.63
2023-01-29T04:32:59.692Z,0.17
2023-01-29T04:35:32.194Z,0.26
2023-01-29T04:38:08.899Z,0.44
2023-01-29T04:40:43.283Z,0.29
2023-01-29T04:43:16.044Z,0.68
2023-01-29T04:45:51.172Z,0.85
2023-01-29T04:48:25.181Z,0.85
2023-01-29T04:50:57.277Z,1.04
2023-01-29T04:53:30.331Z,1.17
2023-01-29T04:56:02.501Z,0.94
2023-01-29T04:58:34.313Z,0.69
2023-01-29T05:01:03.535Z,-0.09
2023-01-29T05:03:33.743Z,-0.27
2023-01-29T05:06:02.152Z,-0.51
2023-01-29T05:08:30.881Z,-0.93
2023-01-29T05:10:59.548Z,-0.77
2023-01-29T05:13:28.112Z,-0.56
2023-01-29T05:15:58.204Z,-0.41
2023-01-29T05:18:25.715Z,-0.88
2023-01-29T05:20:56.636Z,-0.68
2023-01-29T05:23:24.724Z,-0.46
2023-01-29T05:25:52.801Z,-0.66
2023-01-29T05:28:19.506Z,-0.31
2023-01-29T05:30:48.686Z,-0.80
2023-01-29T05:33:19.132Z,-0.94
2023-01-29T05:35:47.154Z,-0.89
2023-01-29T05:38:16.797Z,-0.98
2023-01-29T05:40:44.666Z,-0.86
2023-01-29T05:43:17.424Z,-0.81
2023-01-29T05:45:45.319Z,-1.27
2023-01-29T05:48:12.792Z,-0.90
2023-01-29T05:50:40.239Z,-1.17
2023-01-29T05:53:07.729Z,-1.16
2023-01-29T05:55:36.530Z,-0.96
2023-01-29T05:58:05.897Z,-0.99
2023-01-29T06:00:33.529Z,-0.63
2023-01-29T06:03:01.465Z,-1.09
2023-01-29T06:05:28.996Z,-1.05
2023-01-29T06:07:56.499Z,-0.98
2023-01-29T06:10:23.974Z,-1.08
2023-01-29T06:12:52.790Z,-1.36
2023-01-29T06:15:20.603Z,-1.24
2023-01-29T06:17:48.109Z,-1.25
2023-01-29T06:20:15.940Z,-0.86
2023-01-29T06:22:43.629Z,-0.90
2023-01-29T06:25:11.126Z,-0.96
2023-01-29T06:27:38.644Z,-1.11
2023-01-29T06:30:09.213Z,-0.81
2023-01-29T06:32:36.757Z,-0.90
2023-01-29T06:35:04.880Z,-1.04
2023-01-29T06:37:32.377Z,-0.55
2023-01-29T06:39:59.840Z,-1.01
2023-01-29T06:42:28.078Z,-0.68
2023-01-29T06:44:55.726Z,-0.62
2023-01-29T06:47:25.152Z,-0.54
2023-01-29T06:49:52.625Z,-0.52
2023-01-29T06:52:20.124Z,-0.27
2023-01-29T06:54:47.642Z,-0.06
2023-01-29T06:57:15.181Z,-0.34
2023-01-29T06:59:42.848Z,-0.51
2023-01-29T07:02:10.887Z,-0.58
2023-01-29T07:04:41.554Z,-0.73
2023-01-29T07:07:13.163Z,-0.77
2023-01-29T07:09:41.717Z,-0.63
2023-01-29T07:12:09.708Z,-0.82
2023-01-29T07:14:37.269Z,-0.58
2023-01-29T07:17:04.784Z,-0.73
2023-01-29T07:19:32.244Z,-0.70
2023-01-29T07:22:02.366Z,-0.41
2023-01-29T07:24:29.996Z,-0.35
2023-01-29T07:26:57.556Z,-0.16
2023-01-29T07:29:25.060Z,-0.59
2023-01-29T07:31:52.643Z,-0.59
2023-01-29T07:34:20.368Z,-0.76
2023-01-29T07:36:47.850Z,-0.53
2023-01-29T07:39:16.612Z,-0.80
2023-01-29T07:41:44.086Z,-0.65
2023-01-29T07:44:11.615Z,-0.53
2023-01-29T07:46:39.139Z,-0.50
2023-01-29T07:49:06.656Z,-0.41
2023-01-29T07:51:34.150Z,-0.03
2023-01-29T07:54:01.676Z,-0.08
2023-01-29T07:56:30.535Z,-0.23
2023-01-29T07:58:58.066Z,0.05
2023-01-29T08:01:25.583Z,0.04
2023-01-29T08:03:53.125Z,0.43
2023-01-29T08:06:20.599Z,-0.02
2023-01-29T08:08:48.099Z,-0.59
2023-01-29T08:11:15.653Z,0.02
2023-01-29T08:13:44.458Z,0.65
2023-01-29T08:16:11.972Z,0.39
2023-01-29T08:18:42.406Z,0.68
2023-01-29T08:21:12.931Z,0.44
2023-01-29T08:23:40.553Z,0.71
2023-01-29T08:26:08.024Z,0.62
2023-01-29T08:28:35.866Z,0.37
2023-01-29T08:31:04.799Z,0.58
2023-01-29T08:33:39.664Z,0.62
2023-01-29T08:36:08.296Z,0.17
2023-01-29T08:38:35.839Z,0.03
2023-01-29T08:41:03.339Z,0.77
2023-01-29T08:43:30.868Z,0.16
2023-01-29T08:45:58.459Z,0.47
2023-01-29T08:48:27.389Z,0.36
2023-01-29T08:50:58.135Z,-0.12
2023-01-29T08:53:25.942Z,0.04
2023-01-29T08:55:53.969Z,0.07
2023-01-29T08:58:21.655Z,0.51
2023-01-29T09:00:49.112Z,0.56
2023-01-29T09:03:17.046Z,0.27
2023-01-29T09:05:46.704Z,0.37
2023-01-29T09:08:15.454Z,0.45
2023-01-29T09:10:42.925Z,0.63
2023-01-29T09:13:10.399Z,0.57
2023-01-29T09:15:37.875Z,-0.18
2023-01-29T09:18:06.334Z,0.65
2023-01-29T09:20:33.992Z,0.40
2023-01-29T09:23:06.432Z,0.08
2023-01-29T09:25:33.900Z,0.72
2023-01-29T09:28:01.404Z,0.38
2023-01-29T09:30:28.943Z,0.70
2023-01-29T09:32:56.454Z,0.31
2023-01-29T09:35:24.420Z,0.55
2023-01-29T09:37:52.519Z,0.60
2023-01-29T09:40:27.128Z,0.92
2023-01-29T09:42:58.509Z,0.73
2023-01-29T09:45:28.007Z,1.25
2023-01-29T09:47:58.783Z,1.19
2023-01-29T09:50:30.354Z,1.27
2023-01-29T09:53:00.491Z,1.17
2023-01-29T09:55:31.440Z,1.21
2023-01-29T09:58:00.591Z,1.21
2023-01-29T10:00:31.557Z,1.17
2023-01-29T10:03:20.359Z,1.11
2023-01-29T10:05:59.478Z,1.31
2023-01-29T10:08:55.278Z,1.27
2023-01-29T10:11:30.696Z,1.21
2023-01-29T10:14:05.777Z,1.11
2023-01-29T10:16:42.932Z,1.25
2023-01-29T10:19:20.606Z,1.24
2023-01-29T10:22:07.546Z,1.20
2023-01-29T10:24:38.304Z,1.17
2023-01-29T10:27:14.300Z,1.11
2023-01-29T10:29:42.849Z,1.18
2023-01-29T10:32:16.648Z,1.34
2023-01-29T10:34:47.526Z,1.21
2023-01-29T10:37:18.479Z,1.06
2023-01-29T10:39:46.422Z,1.32
2023-01-29T10:42:25.646Z,1.36
2023-01-29T10:45:04.935Z,1.36
2023-01-29T10:47:53.553Z,1.35
2023-01-29T10:50:29.584Z,1.36
2023-01-29T10:53:07.541Z,1.39
2023-01-29T10:55:42.118Z,1.35
2023-01-29T10:58:17.997Z,1.53
2023-01-29T11:00:45.592Z,1.53
2023-01-29T11:03:26.812Z,1.47
2023-01-29T11:06:00.502Z,1.53
2023-01-29T11:08:30.664Z,1.45
2023-01-29T11:11:04.569Z,1.33
2023-01-29T11:13:37.763Z,1.41
2023-01-29T11:16:06.051Z,1.61
2023-01-29T11:18:52.512Z,1.57
2023-01-29T11:21:20.005Z,1.36
2023-01-29T11:23:47.560Z,1.59
2023-01-29T11:26:19.474Z,1.33
2023-01-29T11:28:49.425Z,1.37
2023-01-29T11:31:19.298Z,1.51
2023-01-29T11:33:47.311Z,1.48
2023-01-29T11:36:22.770Z,1.70
2023-01-29T11:39:12.337Z,1.62
2023-01-29T11:41:45.380Z,1.60
2023-01-29T11:44:21.020Z,1.70
2023-01-29T11:46:48.790Z,1.52
2023-01-29T11:49:24.332Z,1.48
2023-01-29T11:51:53.742Z,1.65
2023-01-29T11:54:21.872Z,1.68
2023-01-29T11:56:51.643Z,1.83
2023-01-29T11:59:30.289Z,1.81
2023-01-29T12:02:05.202Z,1.87
2023-01-29T12:04:32.754Z,1.74
2023-01-29T12:07:00.523Z,1.65
2023-01-29T12:09:28.452Z,1.73
2023-01-29T12:11:56.111Z,1.64
2023-01-29T12:14:30.058Z,1.61
2023-01-29T12:17:00.599Z,1.46
2023-01-29T12:19:33.939Z,1.70
2023-01-29T12:22:04.647Z,1.56
2023-01-29T12:24:35.441Z,1.60
2023-01-29T12:27:08.698Z,1.74
2023-01-29T12:29:44.033Z,1.78
2023-01-29T12:32:19.632Z,1.53
2023-01-29T12:34:49.511Z,1.62
2023-01-29T12:37:21.943Z,1.58
2023-01-29T12:39:49.996Z,1.55
2023-01-29T12:42:19.662Z,1.66
2023-01-29T12:44:51.253Z,1.82
2023-01-29T12:47:22.078Z,1.71
2023-01-29T12:49:53.213Z,1.65
2023-01-29T12:52:24.277Z,1.63
2023-01-29T12:54:54.806Z,1.49
2023-01-29T12:57:25.266Z,1.42
2023-01-29T12:59:57.613Z,1.37
2023-01-29T13:02:33.115Z,1.39
2023-01-29T13:05:03.707Z,1.50
2023-01-29T13:07:33.357Z,1.55
2023-01-29T13:10:06.556Z,1.48
2023-01-29T13:12:34.915Z,1.52
2023-01-29T13:15:05.141Z,1.13
2023-01-29T13:17:36.960Z,1.62
2023-01-29T13:20:06.321Z,1.73
2023-01-29T13:22:37.222Z,1.65
2023-01-29T13:25:06.118Z,1.68
2023-01-29T13:27:35.258Z,1.53
2023-01-29T13:30:05.160Z,1.50
2023-01-29T13:32:34.018Z,1.59
2023-01-29T13:35:04.281Z,1.65
2023-01-29T13:37:34.353Z,1.69
2023-01-29T13:40:08.231Z,1.61
2023-01-29T13:42:40.729Z,1.53
2023-01-29T13:45:20.176Z,1.64
2023-01-29T13:47:47.721Z,1.52
2023-01-29T13:50:21.319Z,1.30
2023-01-29T13:52:54.561Z,1.39
2023-01-29T13:55:31.170Z,1.49
2023-01-29T13:58:00.144Z,1.48
2023-01-29T14:01:00.394Z,1.62
2023-01-29T14:04:04.801Z,1.46
2023-01-29T14:06:42.666Z,1.60
2023-01-29T14:09:56.855Z,1.40
2023-01-29T14:12:45.930Z,1.60
2023-01-29T14:15:25.709Z,1.57
2023-01-29T14:18:00.718Z,1.59
2023-01-29T14:20:45.250Z,1.49
2023-01-29T14:23:23.925Z,1.47
2023-01-29T14:25:51.726Z,1.53
2023-01-29T14:28:23.434Z,1.45
2023-01-29T14:30:52.163Z,1.45
2023-01-29T14:33:29.531Z,1.47
2023-01-29T14:35:59.219Z,1.30
2023-01-29T14:38:28.963Z,1.57
2023-01-29T14:41:13.336Z,1.53
2023-01-29T14:43:41.071Z,1.34
2023-01-29T14:46:47.504Z,1.46
2023-01-29T14:49:56.601Z,1.24
2023-01-29T14:52:27.380Z,1.33
2023-01-29T14:54:59.046Z,1.16
2023-01-29T14:57:27.231Z,1.33
2023-01-29T14:59:57.553Z,1.24
2023-01-29T15:02:27.632Z,1.17
2023-01-29T15:04:58.324Z,1.31
2023-01-29T15:07:30.999Z,1.17
2023-01-29T15:10:20.920Z,1.28
2023-01-29T15:12:51.651Z,1.30
2023-01-29T15:15:22.645Z,1.34
2023-01-29T15:17:55.708Z,1.26
2023-01-29T15:20:31.395Z,1.41
2023-01-29T15:22:59.504Z,1.32
2023-01-29T15:25:27.950Z,1.17
2023-01-29T15:27:55.951Z,1.23
2023-01-29T15:30:27.429Z,1.21
2023-01-29T15:32:54.973Z,1.31
2023-01-29T15:35:29.168Z,1.17
2023-01-29T15:38:02.601Z,1.29
2023-01-29T15:40:30.186Z,1.18
2023-01-29T15:42:57.713Z,1.23
2023-01-29T15:45:30.103Z,1.20
2023-01-29T15:48:03.243Z,1.21
2023-01-29T15:50:30.830Z,1.16
2023-01-29T15:52:58.871Z,1.02
2023-01-29T15:55:28.430Z,1.16
2023-01-29T15:57:57.448Z,1.16
2023-01-29T16:00:27.364Z,1.29
2023-01-29T16:02:55.673Z,1.37
2023-01-29T16:05:26.064Z,1.24
2023-01-29T16:07:55.559Z,1.09
2023-01-29T16:10:24.120Z,1.20
2023-01-29T16:12:53.453Z,1.20
2023-01-29T16:15:34.814Z,1.11
2023-01-29T16:18:03.900Z,1.10
2023-01-29T16:20:37.737Z,1.20
2023-01-29T16:23:06.523Z,1.12
2023-01-29T16:25:35.523Z,0.99
2023-01-29T16:28:06.801Z,1.17
2023-01-29T16:30:34.434Z,1.13
2023-01-29T16:33:03.532Z,1.25
2023-01-29T16:35:31.187Z,1.24
2023-01-29T16:38:03.254Z,1.23
2023-01-29T16:40:33.291Z,1.16
2023-01-29T16:43:47.111Z,1.14
2023-01-29T16:46:33.098Z,1.05
2023-01-29T16:49:01.180Z,1.09
2023-01-29T16:51:30.721Z,1.08
2023-01-29T16:54:00.241Z,1.09
2023-01-29T16:56:30.263Z,0.97
2023-01-29T16:58:58.139Z,1.00
2023-01-29T17:01:30.099Z,1.01
2023-01-29T17:04:01.842Z,1.02
2023-01-29T17:06:29.592Z,1.13
2023-01-29T17:08:57.348Z,1.07
2023-01-29T17:11:27.600Z,0.92
2023-01-29T17:13:57.013Z,1.00
2023-01-29T17:16:30.125Z,1.03
2023-01-29T17:18:58.244Z,1.09
2023-01-29T17:21:25.866Z,1.08
2023-01-29T17:23:53.731Z,1.02
2023-01-29T17:26:21.679Z,0.94
2023-01-29T17:28:50.913Z,1.10
2023-01-29T17:31:18.779Z,1.09
2023-01-29T17:33:48.385Z,1.13
2023-01-29T17:36:18.340Z,1.08
2023-01-29T17:38:46.223Z,1.03
2023-01-29T17:41:17.987Z,1.08
2023-01-29T17:43:45.783Z,0.95
2023-01-29T17:46:15.105Z,0.99
2023-01-29T17:48:42.678Z,1.02
2023-01-29T17:51:14.405Z,0.92
2023-01-29T17:53:45.860Z,0.93
2023-01-29T17:56:18.744Z,0.86
2023-01-29T17:58:46.265Z,0.82
2023-01-29T18:01:13.736Z,0.92
2023-01-29T18:03:41.622Z,0.91
2023-01-29T18:06:09.659Z,0.92
2023-01-29T18:08:39.365Z,1.03
2023-01-29T18:11:07.243Z,0.86
2023-01-29T18:13:36.198Z,0.99
2023-01-29T18:16:03.899Z,1.01
2023-01-29T18:18:31.450Z,1.06
2023-01-29T18:20:58.975Z,1.02
2023-01-29T18:23:26.500Z,1.01
2023-01-29T18:25:57.596Z,1.02
2023-01-29T18:28:26.001Z,0.98
2023-01-29T18:30:53.816Z,1.02
2023-01-29T18:33:24.049Z,0.99
2023-01-29T18:35:54.898Z,0.98
2023-01-29T18:38:22.691Z,0.94
2023-01-29T18:40:50.829Z,0.99
2023-01-29T18:43:19.660Z,1.06
2023-01-29T18:45:48.665Z,0.96
2023-01-29T18:48:16.175Z,0.94
2023-01-29T18:50:58.758Z,1.01
2023-01-29T18:53:26.825Z,1.03
2023-01-29T18:55:58.815Z,0.98
2023-01-29T18:58:36.416Z,1.06
2023-01-29T19:01:08.823Z,0.93
2023-01-29T19:03:36.921Z,0.98
2023-01-29T19:06:06.388Z,1.08
2023-01-29T19:08:37.286Z,0.99
2023-01-29T19:11:08.085Z,0.98
2023-01-29T19:13:38.015Z,1.05
2023-01-29T19:16:09.175Z,1.00
2023-01-29T19:18:37.194Z,0.97
2023-01-29T19:21:08.554Z,1.01
2023-01-29T19:23:36.033Z,0.98
2023-01-29T19:26:03.550Z,0.91
2023-01-29T19:28:31.419Z,0.94
2023-01-29T19:31:10.969Z,0.99
2023-01-29T19:33:39.186Z,1.09
2023-01-29T19:36:07.378Z,1.04
2023-01-29T19:38:38.492Z,1.05
2023-01-29T19:41:06.390Z,1.08
2023-01-29T19:43:33.912Z,1.11
2023-01-29T19:46:02.983Z,1.03
2023-01-29T19:48:30.847Z,0.99
2023-01-29T19:51:00.019Z,1.08
2023-01-29T19:53:29.173Z,0.98
2023-01-29T19:56:00.525Z,0.89
2023-01-29T19:58:28.567Z,1.08
2023-01-29T20:00:57.315Z,1.11
2023-01-29T20:03:27.196Z,1.00
2023-01-29T20:05:54.758Z,1.04
2023-01-29T20:08:24.017Z,1.09
2023-01-29T20:10:51.509Z,0.92
2023-01-29T20:13:19.012Z,1.01
2023-01-29T20:15:46.966Z,1.11
2023-01-29T20:18:15.576Z,0.92
2023-01-29T20:20:45.343Z,0.86
2023-01-29T20:23:13.482Z,0.97
2023-01-29T20:25:41.368Z,0.92
2023-01-29T20:28:12.150Z,0.96
2023-01-29T20:30:41.004Z,0.96
2023-01-29T20:33:08.758Z,0.94
2023-01-29T20:35:37.293Z,0.74
2023-01-29T20:38:06.611Z,0.79
2023-01-29T20:40:34.183Z,0.80
2023-01-29T20:43:01.899Z,0.93
2023-01-29T20:45:30.910Z,0.89
2023-01-29T20:47:58.683Z,0.94
2023-01-29T20:50:26.549Z,1.00
2023-01-29T20:52:54.225Z,0.88
2023-01-29T20:55:23.111Z,0.83
2023-01-29T20:58:05.778Z,0.84
2023-01-29T21:00:34.110Z,0.90
2023-01-29T21:03:01.591Z,0.89
2023-01-29T21:05:30.231Z,0.95
2023-01-29T21:07:57.707Z,0.89
2023-01-29T21:10:26.615Z,0.95
2023-01-29T21:12:54.579Z,0.85
2023-01-29T21:15:23.344Z,0.92
2023-01-29T21:17:51.648Z,0.84
2023-01-29T21:20:19.442Z,0.98
2023-01-29T21:22:49.021Z,0.94
2023-01-29T21:25:20.125Z,0.96
2023-01-29T21:27:49.082Z,1.00
2023-01-29T21:30:18.358Z,0.97
2023-01-29T21:32:46.138Z,0.92
2023-01-29T21:35:14.891Z,1.00
2023-01-29T21:37:42.712Z,0.96
2023-01-29T21:40:11.590Z,1.03
2023-01-29T21:42:56.627Z,1.05
2023-01-29T21:45:25.560Z,0.92
2023-01-29T21:47:53.028Z,1.14
2023-01-29T21:50:20.831Z,0.96
2023-01-29T21:52:48.444Z,0.87
2023-01-29T21:55:16.677Z,1.00
2023-01-29T21:57:46.600Z,1.04
2023-01-29T22:00:15.053Z,1.03
2023-01-29T22:02:44.265Z,1.04
2023-01-29T22:05:19.444Z,1.09
2023-01-29T22:07:47.746Z,1.03
2023-01-29T22:10:16.307Z,1.05
2023-01-29T22:12:44.776Z,1.13
2023-01-29T22:15:13.083Z,1.06
2023-01-29T22:17:41.430Z,1.09
2023-01-29T22:20:12.203Z,1.04
2023-01-29T22:22:39.672Z,1.11
2023-01-29T22:25:07.704Z,1.08
2023-01-29T22:27:35.492Z,1.09
2023-01-29T22:30:03.084Z,1.10
2023-01-29T22:32:32.816Z,1.03
2023-01-29T22:35:00.706Z,0.95
2023-01-29T22:37:30.229Z,1.07
2023-01-29T22:39:57.696Z,1.05
2023-01-29T22:42:25.155Z,1.11
2023-01-29T22:44:52.809Z,1.02
2023-01-29T22:47:20.275Z,1.15
2023-01-29T22:49:50.004Z,1.03
2023-01-29T22:52:21.226Z,1.05
2023-01-29T22:54:51.400Z,1.09
2023-01-29T22:57:19.796Z,1.03
2023-01-29T22:59:47.449Z,1.04
2023-01-29T23:02:15.099Z,1.06
2023-01-29T23:04:42.903Z,1.07
2023-01-29T23:07:11.330Z,1.13
2023-01-29T23:09:38.845Z,1.10
2023-01-29T23:12:08.664Z,1.13
2023-01-29T23:14:36.204Z,1.03
2023-01-29T23:17:03.846Z,1.08
2023-01-29T23:19:31.324Z,1.06
2023-01-29T23:21:58.831Z,1.07
2023-01-29T23:24:26.615Z,0.97
2023-01-29T23:27:20.486Z,1.06
2023-01-29T23:29:50.069Z,1.04
2023-01-29T23:32:19.555Z,1.14
2023-01-29T23:34:47.042Z,1.13
2023-01-29T23:37:14.576Z,1.07
2023-01-29T23:39:42.073Z,1.11
2023-01-29T23:42:09.664Z,1.01
2023-01-29T23:44:37.248Z,1.03
2023-01-29T23:47:06.526Z,1.01
2023-01-29T23:49:34.020Z,0.95
2023-01-29T23:52:01.508Z,1.03
2023-01-29T23:54:29.298Z,0.97
2023-01-29T23:56:56.973Z,1.04
2023-01-29T23:59:24.456Z,1.03
